sensor_id;sensor_type;location;lat;lon;timestamp;temperature;humidity
20985;DHT22;10651;47.552;7.606;2023-05-27T07:09:20;17.30;99.90
20985;DHT22;10651;47.552;7.606;2023-05-27T07:15:01;17.40;99.90
20985;DHT22;10651;47.552;7.606;2023-05-27T08:58:11;20.20;99.90
20985;DHT22;10651;47.552;7.606;2023-05-27T09:00:39;20.20;99.90
20985;DHT22;10651;47.552;7.606;2023-05-27T09:05:42;20.30;99.90
20985;DHT22;10651;47.552;7.606;2023-05-27T09:31:25;21.10;99.90
20985;DHT22;10651;47.552;7.606;2023-05-27T09:33:50;21.20;99.90
20985;DHT22;10651;47.552;7.606;2023-05-27T09:36:20;21.10;99.90
20985;DHT22;10651;47.552;7.606;2023-05-27T09:38:47;21.20;99.90
20985;DHT22;10651;47.552;7.606;2023-05-27T09:41:13;21.20;99.90
20985;DHT22;10651;47.552;7.606;2023-05-27T09:43:39;21.30;99.90
20985;DHT22;10651;47.552;7.606;2023-05-27T09:46:11;21.50;99.90
20985;DHT22;10651;47.552;7.606;2023-05-27T09:48:38;21.50;99.90
20985;DHT22;10651;47.552;7.606;2023-05-27T09:51:04;21.70;99.90
20985;DHT22;10651;47.552;7.606;2023-05-27T09:53:31;22.00;99.90
20985;DHT22;10651;47.552;7.606;2023-05-27T09:55:59;22.20;99.90
20985;DHT22;10651;47.552;7.606;2023-05-27T09:58:25;22.20;99.90
20985;DHT22;10651;47.552;7.606;2023-05-27T10:00:51;22.20;99.90
20985;DHT22;10651;47.552;7.606;2023-05-27T10:03:20;22.30;99.90
20985;DHT22;10651;47.552;7.606;2023-05-27T10:05:49;22.40;99.90
20985;DHT22;10651;47.552;7.606;2023-05-27T10:13:48;22.70;99.90
20985;DHT22;10651;47.552;7.606;2023-05-27T10:30:00;23.00;99.90
20985;DHT22;10651;47.552;7.606;2023-05-27T12:01:41;25.30;99.90
20985;DHT22;10651;47.552;7.606;2023-05-27T12:19:50;25.10;99.90
20985;DHT22;10651;47.552;7.606;2023-05-27T12:22:25;25.20;99.90
20985;DHT22;10651;47.552;7.606;2023-05-27T12:24:54;25.20;99.90
20985;DHT22;10651;47.552;7.606;2023-05-27T12:43:17;25.60;99.90
20985;DHT22;10651;47.552;7.606;2023-05-27T12:45:43;25.60;99.90
20985;DHT22;10651;47.552;7.606;2023-05-27T12:48:09;25.70;99.90
20985;DHT22;10651;47.552;7.606;2023-05-27T12:50:38;26.00;99.90
20985;DHT22;10651;47.552;7.606;2023-05-27T12:53:04;26.00;99.90
20985;DHT22;10651;47.552;7.606;2023-05-27T12:55:30;25.90;99.90
20985;DHT22;10651;47.552;7.606;2023-05-27T13:18:51;26.80;99.90
20985;DHT22;10651;47.552;7.606;2023-05-27T13:21:26;26.70;99.90
20985;DHT22;10651;47.552;7.606;2023-05-27T13:44:45;26.40;99.90
20985;DHT22;10651;47.552;7.606;2023-05-27T14:18:18;27.00;99.90
20985;DHT22;10651;47.552;7.606;2023-05-27T14:21:15;27.00;99.90
20985;DHT22;10651;47.552;7.606;2023-05-27T14:26:17;27.00;99.90
20985;DHT22;10651;47.552;7.606;2023-05-27T14:28:50;27.00;99.90
20985;DHT22;10651;47.552;7.606;2023-05-27T14:59:35;26.90;99.90
20985;DHT22;10651;47.552;7.606;2023-05-27T15:02:10;27.00;99.90
20985;DHT22;10651;47.552;7.606;2023-05-27T15:20:41;26.80;99.90
20985;DHT22;10651;47.552;7.606;2023-05-27T16:48:48;26.10;99.90
20985;DHT22;10651;47.552;7.606;2023-05-27T16:51:16;26.00;99.90
20985;DHT22;10651;47.552;7.606;2023-05-27T16:53:49;26.00;99.90
20985;DHT22;10651;47.552;7.606;2023-05-27T17:01:41;25.70;99.90
20985;DHT22;10651;47.552;7.606;2023-05-27T17:04:07;25.60;99.90
20985;DHT22;10651;47.552;7.606;2023-05-27T17:06:33;25.50;99.90
20985;DHT22;10651;47.552;7.606;2023-05-27T17:08:59;25.50;99.90
20985;DHT22;10651;47.552;7.606;2023-05-27T17:11:31;25.30;99.90
20985;DHT22;10651;47.552;7.606;2023-05-27T17:14:01;25.30;99.90
20985;DHT22;10651;47.552;7.606;2023-05-27T17:16:27;25.30;99.90
20985;DHT22;10651;47.552;7.606;2023-05-27T17:18:53;25.30;99.90
20985;DHT22;10651;47.552;7.606;2023-05-27T17:21:19;25.30;99.90
20985;DHT22;10651;47.552;7.606;2023-05-27T17:26:28;25.10;99.90
20985;DHT22;10651;47.552;7.606;2023-05-27T17:36:42;24.80;99.90
20985;DHT22;10651;47.552;7.606;2023-05-27T17:45:04;24.60;99.90
20985;DHT22;10651;47.552;7.606;2023-05-27T17:50:09;24.30;99.90
20985;DHT22;10651;47.552;7.606;2023-05-27T17:52:39;24.30;99.90
20985;DHT22;10651;47.552;7.606;2023-05-27T17:55:07;24.20;99.90
20985;DHT22;10651;47.552;7.606;2023-05-27T18:03:00;24.00;99.90
20985;DHT22;10651;47.552;7.606;2023-05-27T18:05:26;24.00;99.90
20985;DHT22;10651;47.552;7.606;2023-05-27T18:08:00;24.00;99.90
20985;DHT22;10651;47.552;7.606;2023-05-27T18:15:52;23.80;99.90
20985;DHT22;10651;47.552;7.606;2023-05-27T18:18:30;23.80;99.90
20985;DHT22;10651;47.552;7.606;2023-05-27T18:20:57;23.70;99.90
20985;DHT22;10651;47.552;7.606;2023-05-27T18:31:36;23.50;99.90
20985;DHT22;10651;47.552;7.606;2023-05-27T20:27:57;21.30;99.90
20985;DHT22;10651;47.552;7.606;2023-05-27T20:30:23;21.30;99.90
20985;DHT22;10651;47.552;7.606;2023-05-27T20:35:31;21.20;99.90
20985;DHT22;10651;47.552;7.606;2023-05-27T20:37:57;21.20;99.90
20985;DHT22;10651;47.552;7.606;2023-05-27T20:40:23;21.10;99.90
20985;DHT22;10651;47.552;7.606;2023-05-27T20:42:57;21.00;99.90
20985;DHT22;10651;47.552;7.606;2023-05-27T20:45:23;21.00;99.90
20985;DHT22;10651;47.552;7.606;2023-05-27T20:47:52;20.90;99.90
20985;DHT22;10651;47.552;7.606;2023-05-27T20:50:21;20.90;99.90
20985;DHT22;10651;47.552;7.606;2023-05-27T20:52:51;20.80;99.90
20985;DHT22;10651;47.552;7.606;2023-05-27T20:55:20;20.80;99.90
20985;DHT22;10651;47.552;7.606;2023-05-27T20:57:48;20.70;99.90
20985;DHT22;10651;47.552;7.606;2023-05-27T21:00:18;20.60;99.90
20985;DHT22;10651;47.552;7.606;2023-05-27T21:02:46;20.50;99.90
20985;DHT22;10651;47.552;7.606;2023-05-27T21:05:17;20.60;99.90
20985;DHT22;10651;47.552;7.606;2023-05-27T21:07:46;20.60;99.90
20985;DHT22;10651;47.552;7.606;2023-05-27T21:10:23;20.40;99.90
20985;DHT22;10651;47.552;7.606;2023-05-27T21:12:49;20.40;99.90
20985;DHT22;10651;47.552;7.606;2023-05-27T21:15:15;20.30;99.90
20985;DHT22;10651;47.552;7.606;2023-05-27T21:17:44;20.40;99.90
20985;DHT22;10651;47.552;7.606;2023-05-27T21:20:11;20.40;99.90
20985;DHT22;10651;47.552;7.606;2023-05-27T21:22:37;20.30;99.90
20985;DHT22;10651;47.552;7.606;2023-05-27T21:25:32;20.20;99.90
20985;DHT22;10651;47.552;7.606;2023-05-27T21:27:58;20.20;99.90
20985;DHT22;10651;47.552;7.606;2023-05-27T21:30:26;20.20;99.90
20985;DHT22;10651;47.552;7.606;2023-05-27T21:32:59;20.10;99.90
20985;DHT22;10651;47.552;7.606;2023-05-27T21:35:28;20.10;99.90
20985;DHT22;10651;47.552;7.606;2023-05-27T21:37:54;20.10;99.90
20985;DHT22;10651;47.552;7.606;2023-05-27T21:40:34;20.00;99.90
20985;DHT22;10651;47.552;7.606;2023-05-27T21:43:17;20.00;99.90
20985;DHT22;10651;47.552;7.606;2023-05-27T21:45:43;20.00;99.90
20985;DHT22;10651;47.552;7.606;2023-05-27T21:48:14;20.00;99.90
20985;DHT22;10651;47.552;7.606;2023-05-27T21:50:42;20.00;99.90
20985;DHT22;10651;47.552;7.606;2023-05-27T21:53:08;19.90;99.90
20985;DHT22;10651;47.552;7.606;2023-05-27T21:55:34;19.90;99.90
20985;DHT22;10651;47.552;7.606;2023-05-27T21:58:00;19.80;99.90
20985;DHT22;10651;47.552;7.606;2023-05-27T22:00:26;19.80;99.90
20985;DHT22;10651;47.552;7.606;2023-05-27T22:02:52;19.80;99.90
20985;DHT22;10651;47.552;7.606;2023-05-27T22:05:18;19.80;99.90
20985;DHT22;10651;47.552;7.606;2023-05-27T22:07:46;19.70;99.90
20985;DHT22;10651;47.552;7.606;2023-05-27T22:10:12;19.80;99.90
20985;DHT22;10651;47.552;7.606;2023-05-27T22:12:38;19.70;99.90
20985;DHT22;10651;47.552;7.606;2023-05-27T22:15:04;19.70;99.90
20985;DHT22;10651;47.552;7.606;2023-05-27T22:17:30;19.60;99.90
20985;DHT22;10651;47.552;7.606;2023-05-27T22:19:56;19.60;99.90
20985;DHT22;10651;47.552;7.606;2023-05-27T22:22:22;19.50;99.90
20985;DHT22;10651;47.552;7.606;2023-05-27T22:24:49;19.50;99.90
20985;DHT22;10651;47.552;7.606;2023-05-27T22:27:15;19.40;99.90
20985;DHT22;10651;47.552;7.606;2023-05-27T22:29:41;19.40;99.90
20985;DHT22;10651;47.552;7.606;2023-05-27T22:32:07;19.40;99.90
20985;DHT22;10651;47.552;7.606;2023-05-27T22:34:32;19.30;99.90
20985;DHT22;10651;47.552;7.606;2023-05-27T22:36:58;19.30;99.90
20985;DHT22;10651;47.552;7.606;2023-05-27T22:39:24;19.20;99.90
20985;DHT22;10651;47.552;7.606;2023-05-27T22:41:50;19.20;99.90
20985;DHT22;10651;47.552;7.606;2023-05-27T22:44:15;19.20;99.90
20985;DHT22;10651;47.552;7.606;2023-05-27T22:46:41;19.20;99.90
20985;DHT22;10651;47.552;7.606;2023-05-27T22:49:07;19.10;99.90
20985;DHT22;10651;47.552;7.606;2023-05-27T22:51:34;19.10;99.90
20985;DHT22;10651;47.552;7.606;2023-05-27T22:54:02;19.10;99.90
20985;DHT22;10651;47.552;7.606;2023-05-27T22:56:28;19.10;99.90
20985;DHT22;10651;47.552;7.606;2023-05-27T22:58:54;19.10;99.90
20985;DHT22;10651;47.552;7.606;2023-05-27T23:01:21;19.10;99.90
20985;DHT22;10651;47.552;7.606;2023-05-27T23:03:47;19.00;99.90
20985;DHT22;10651;47.552;7.606;2023-05-27T23:06:15;19.00;99.90
20985;DHT22;10651;47.552;7.606;2023-05-27T23:08:41;19.00;99.90
20985;DHT22;10651;47.552;7.606;2023-05-27T23:11:06;19.00;99.90
20985;DHT22;10651;47.552;7.606;2023-05-27T23:13:32;18.90;99.90
20985;DHT22;10651;47.552;7.606;2023-05-27T23:16:01;18.90;99.90
20985;DHT22;10651;47.552;7.606;2023-05-27T23:18:33;18.80;99.90
20985;DHT22;10651;47.552;7.606;2023-05-27T23:21:00;18.80;99.90
20985;DHT22;10651;47.552;7.606;2023-05-27T23:23:32;18.80;99.90
20985;DHT22;10651;47.552;7.606;2023-05-27T23:25:59;18.80;99.90
20985;DHT22;10651;47.552;7.606;2023-05-27T23:28:25;18.80;99.90
20985;DHT22;10651;47.552;7.606;2023-05-27T23:30:51;18.70;99.90
20985;DHT22;10651;47.552;7.606;2023-05-27T23:33:18;18.70;99.90
20985;DHT22;10651;47.552;7.606;2023-05-27T23:35:48;18.60;99.90
20985;DHT22;10651;47.552;7.606;2023-05-27T23:38:14;18.60;99.90
20985;DHT22;10651;47.552;7.606;2023-05-27T23:40:40;18.60;99.90
20985;DHT22;10651;47.552;7.606;2023-05-27T23:43:06;18.60;99.90
20985;DHT22;10651;47.552;7.606;2023-05-27T23:45:32;18.60;99.90
20985;DHT22;10651;47.552;7.606;2023-05-27T23:47:59;18.50;99.90
20985;DHT22;10651;47.552;7.606;2023-05-27T23:50:25;18.50;99.90
20985;DHT22;10651;47.552;7.606;2023-05-27T23:52:51;18.50;99.90
20985;DHT22;10651;47.552;7.606;2023-05-27T23:55:16;18.40;99.90
20985;DHT22;10651;47.552;7.606;2023-05-27T23:57:43;18.40;99.90
